Time;durP1;ratioP1;P1;durP2;ratioP2;P2;SDS_P1;SDS_P2;PMS_P1;PMS_P2;Temp;Humidity;BMP_temperature;BMP_pressure;BME280_temperature;BME280_humidity;BME280_pressure;Samples;Min_cycle;Max_cycle;Signal;HPM_P1;HPM_P2
2023/06/24 00:01:00;;;;;;;14.60;13.30;;;;;;;23.14;70.81;100203.11;107697;1258;72771;-81
2023/06/24 00:03:27;;;;;;;14.80;13.40;;;;;;;23.05;70.98;100199.19;107593;1260;72515;-82
2023/06/24 00:05:56;;;;;;;14.90;13.50;;;;;;;22.96;71.15;100198.27;107720;1258;61696;-81
2023/06/24 00:08:34;;;;;;;14.40;13.10;;;;;;;22.90;71.49;100196.52;107698;1258;60435;-81
2023/06/24 00:11:05;;;;;;;15.30;13.80;;;;;;;22.85;71.43;100196.80;107696;1257;73911;-80
2023/06/24 00:14:00;;;;;;;14.00;12.60;;;;;;;22.81;71.50;100195.73;107676;1257;72757;-80
2023/06/24 00:17:01;;;;;;;15.30;13.70;;;;;;;22.69;71.67;100198.44;107722;1264;71293;-82
2023/06/24 00:20:04;;;;;;;14.20;12.80;;;;;;;22.58;71.98;100196.89;107755;1260;60438;-81
2023/06/24 00:22:50;;;;;;;;;;;;;;;22.57;72.13;100196.16;107740;1262;60731;-80
2023/06/24 00:25:35;;;;;;;15.20;13.10;;;;;;;22.60;72.15;100197.56;107759;1258;72870;-81
2023/06/24 00:28:13;;;;;;;14.60;13.10;;;;;;;22.61;72.01;100197.93;107669;1263;73897;-80
2023/06/24 00:30:40;;;;;;;14.90;13.50;;;;;;;22.63;72.19;100197.66;107640;1257;72677;-81
2023/06/24 00:33:10;;;;;;;14.70;13.30;;;;;;;22.65;72.14;100196.41;107682;1258;61834;-81
2023/06/24 00:35:38;;;;;;;15.70;14.00;;;;;;;22.66;72.01;100194.32;107668;1257;60239;-81
2023/06/24 00:38:06;;;;;;;14.80;13.20;;;;;;;22.65;71.93;100194.06;107755;1263;73885;-82
2023/06/24 00:40:34;;;;;;;15.40;13.80;;;;;;;22.65;72.11;100186.84;107663;1257;72950;-80
2023/06/24 00:43:02;;;;;;;16.60;13.20;;;;;;;22.67;72.11;100185.02;107681;1260;71396;-83
2023/06/24 00:45:30;;;;;;;14.60;13.10;;;;;;;22.65;72.18;100186.98;107597;1261;60477;-82
2023/06/24 00:48:02;;;;;;;14.80;13.30;;;;;;;22.65;72.37;100180.79;107706;1257;60235;-80
2023/06/24 00:50:32;;;;;;;14.90;13.50;;;;;;;22.68;72.44;100179.39;107682;1257;72672;-80
2023/06/24 00:53:00;;;;;;;14.70;13.30;;;;;;;22.70;72.50;100184.04;107651;1257;72959;-81
2023/06/24 00:55:28;;;;;;;15.00;13.50;;;;;;;22.71;72.42;100184.60;107678;1260;71149;-82
2023/06/24 00:57:57;;;;;;;15.20;13.80;;;;;;;22.70;72.51;100183.71;107696;1260;61888;-81
2023/06/24 01:00:25;;;;;;;15.40;13.90;;;;;;;22.70;72.50;100182.84;107649;1257;60345;-80
2023/06/24 01:02:52;;;;;;;16.00;14.40;;;;;;;22.73;72.29;100172.96;107637;1257;72908;-81
2023/06/24 01:05:23;;;;;;;15.60;13.40;;;;;;;22.76;72.15;100165.34;107685;1257;72575;-82
2023/06/24 01:07:55;;;;;;;14.60;13.20;;;;;;;22.79;72.01;100158.43;107636;1258;72784;-82
2023/06/24 01:10:24;;;;;;;15.40;13.90;;;;;;;22.82;72.02;100158.48;107685;1258;61643;-81
2023/06/24 01:12:51;;;;;;;16.00;13.70;;;;;;;22.82;71.78;100155.22;107672;1257;60086;-80
2023/06/24 01:15:21;;;;;;;15.40;13.90;;;;;;;22.82;71.68;100158.27;107747;1257;72737;-81
2023/06/24 01:17:59;;;;;;;15.40;13.90;;;;;;;22.80;71.72;100158.99;107573;1263;72505;-81
2023/06/24 01:20:34;;;;;;;15.20;13.70;;;;;;;22.75;71.83;100160.66;107721;1257;72545;-81
2023/06/24 01:23:14;;;;;;;15.40;14.00;;;;;;;22.74;71.77;100162.73;107762;1257;61656;-81
2023/06/24 01:25:54;;;;;;;15.80;14.10;;;;;;;22.71;71.86;100164.90;107575;1257;60312;-80
2023/06/24 01:28:42;;;;;;;14.30;12.90;;;;;;;22.67;71.91;100166.76;107638;1258;74460;-81
2023/06/24 01:31:23;;;;;;;15.60;14.00;;;;;;;22.65;72.04;100166.38;107619;1257;71727;-81
2023/06/24 01:33:59;;;;;;;15.60;14.20;;;;;;;22.86;71.12;100165.30;107641;1256;71854;-81
2023/06/24 01:36:27;;;;;;;15.80;14.20;;;;;;;22.75;71.44;100166.56;107788;1260;61696;-82
2023/06/24 01:38:58;;;;;;;15.20;13.80;;;;;;;22.74;71.31;100169.33;107692;1258;60309;-81
2023/06/24 01:41:26;;;;;;;15.10;13.30;;;;;;;22.61;71.70;100167.12;107657;1258;73823;-80
2023/06/24 01:43:54;;;;;;;15.60;14.10;;;;;;;22.56;71.60;100171.95;107623;1257;72760;-81
2023/06/24 01:46:22;;;;;;;14.90;13.50;;;;;;;22.51;71.79;100180.46;107650;1257;72538;-81
2023/06/24 01:48:51;;;;;;;16.60;14.70;;;;;;;22.44;71.82;100186.86;107664;1260;61844;-81
2023/06/24 01:51:20;;;;;;;16.10;14.60;;;;;;;22.43;71.96;100191.81;107591;1257;60690;-81
2023/06/24 01:53:51;;;;;;;15.30;13.80;;;;;;;22.42;72.09;100186.98;107620;1257;73869;-81
2023/06/24 01:56:20;;;;;;;14.90;13.50;;;;;;;22.40;72.08;100186.91;107655;1257;72742;-82
2023/06/24 01:58:48;;;;;;;15.80;14.20;;;;;;;22.38;72.15;100185.70;107525;1259;74693;-82
2023/06/24 02:01:15;;;;;;;15.80;14.30;;;;;;;22.36;72.28;100191.08;107636;1257;61831;-81
2023/06/24 02:03:43;;;;;;;15.40;13.80;;;;;;;22.35;72.21;100197.43;107598;1256;60332;-82
2023/06/24 02:06:11;;;;;;;16.00;14.40;;;;;;;22.34;72.39;100201.42;107621;1257;73914;-81
2023/06/24 02:08:40;;;;;;;15.40;13.90;;;;;;;22.34;72.29;100196.08;107629;1257;72880;-81
2023/06/24 02:11:08;;;;;;;15.80;14.20;;;;;;;22.34;72.52;100203.38;107731;1257;73963;-81
2023/06/24 02:13:39;;;;;;;15.40;14.00;;;;;;;22.34;72.65;100207.18;107733;1257;60431;-81
2023/06/24 02:16:11;;;;;;;16.20;14.50;;;;;;;22.37;72.68;100211.33;107669;1257;60472;-81
2023/06/24 02:18:42;;;;;;;16.30;14.70;;;;;;;22.41;72.71;100209.58;107566;1256;72588;-81
2023/06/24 02:21:10;;;;;;;15.50;14.00;;;;;;;22.42;72.47;100202.61;107798;1257;72071;-81
2023/06/24 02:23:38;;;;;;;16.80;15.00;;;;;;;22.42;72.68;100204.70;107694;1256;72669;-81
2023/06/24 02:26:06;;;;;;;16.40;14.80;;;;;;;22.43;72.64;100203.41;107573;1257;61761;-80
2023/06/24 02:28:34;;;;;;;16.10;14.40;;;;;;;22.46;72.77;100206.52;107681;1256;60038;-81
2023/06/24 02:31:03;;;;;;;17.10;15.40;;;;;;;22.46;72.81;100210.73;107650;1257;72409;-81
2023/06/24 02:33:30;;;;;;;16.90;15.20;;;;;;;22.46;72.93;100209.09;107577;1256;71478;-82
2023/06/24 02:35:58;;;;;;;14.90;13.40;;;;;;;22.47;73.12;100208.95;107524;1256;72735;-82
2023/06/24 02:38:26;;;;;;;15.70;14.20;;;;;;;22.47;73.15;100211.70;107710;1260;60433;-79
2023/06/24 02:40:56;;;;;;;15.90;14.40;;;;;;;22.51;73.42;100213.66;107750;1262;60647;-81
2023/06/24 02:43:24;;;;;;;16.30;14.70;;;;;;;22.60;73.55;100215.15;107571;1257;73966;-80
2023/06/24 02:45:51;;;;;;;15.50;13.90;;;;;;;22.71;73.47;100218.87;107715;1256;72507;-80
2023/06/24 02:48:19;;;;;;;16.00;14.50;;;;;;;22.82;73.19;100222.00;107659;1260;71568;-82
2023/06/24 02:50:47;;;;;;;16.00;14.50;;;;;;;22.95;73.00;100219.23;107660;1261;60438;-80
2023/06/24 02:53:17;;;;;;;15.70;14.10;;;;;;;23.07;72.98;100221.04;107623;1256;60456;-81
2023/06/24 02:55:45;;;;;;;14.90;13.40;;;;;;;23.19;72.67;100222.21;107668;1256;72738;-81
2023/06/24 02:58:13;;;;;;;14.60;13.20;;;;;;;23.28;71.90;100224.95;107532;1257;72754;-81
2023/06/24 03:01:03;;;;;;;16.10;14.40;;;;;;;23.37;71.51;100219.33;107672;1259;71455;-80
2023/06/24 03:03:49;;;;;;;15.50;14.10;;;;;;;23.49;70.92;100218.67;107699;1257;60848;-80
2023/06/24 03:06:17;;;;;;;15.30;13.90;;;;;;;23.58;70.43;100217.27;107578;1256;60361;-80
2023/06/24 03:08:45;;;;;;;15.90;14.30;;;;;;;23.67;69.80;100216.09;107769;1259;76246;-81
2023/06/24 03:11:14;;;;;;;15.70;14.00;;;;;;;23.76;69.13;100216.15;107619;1257;71663;-81
2023/06/24 03:13:42;;;;;;;16.50;14.30;;;;;;;23.85;68.53;100214.44;107583;1256;71454;-80
2023/06/24 03:16:15;;;;;;;15.10;13.60;;;;;;;23.92;67.90;100218.86;107619;1256;61689;-80
2023/06/24 03:19:04;;;;;;;16.10;14.40;;;;;;;23.95;67.23;100228.58;107742;1257;60019;-81
2023/06/24 03:21:33;;;;;;;18.00;15.00;;;;;;;23.94;66.92;100231.54;107679;1256;72625;-79
2023/06/24 03:24:10;;;;;;;15.60;14.10;;;;;;;23.93;66.94;100229.34;107675;1263;71917;-80
2023/06/24 03:26:39;;;;;;;15.80;14.30;;;;;;;23.93;66.53;100227.23;107625;1261;72932;-81
2023/06/24 03:29:10;;;;;;;15.30;13.70;;;;;;;23.94;66.49;100224.30;107560;1256;61663;-80
2023/06/24 03:31:43;;;;;;;16.60;14.80;;;;;;;23.98;66.46;100222.04;107800;1257;60443;-81
2023/06/24 03:34:16;;;;;;;15.20;13.80;;;;;;;24.05;66.27;100218.23;107692;1256;73886;-81
2023/06/24 03:36:44;;;;;;;16.10;14.50;;;;;;;24.16;66.18;100218.38;107574;1256;75467;-80
2023/06/24 03:39:13;;;;;;;15.30;13.80;;;;;;;24.27;65.90;100216.58;107609;1257;71825;-81
2023/06/24 03:41:40;;;;;;;15.80;14.10;;;;;;;24.34;65.49;100215.64;107755;1262;62508;-80
2023/06/24 03:44:08;;;;;;;15.70;14.00;;;;;;;24.38;65.05;100215.42;107748;1257;60460;-80
2023/06/24 03:46:36;;;;;;;15.50;14.00;;;;;;;24.40;64.68;100207.29;107812;1257;73936;-81
2023/06/24 03:49:04;;;;;;;15.90;14.40;;;;;;;24.42;64.39;100211.62;107775;1256;72704;-81
2023/06/24 03:51:32;;;;;;;16.40;14.70;;;;;;;24.45;64.48;100211.05;107624;1260;72458;-80
2023/06/24 03:53:59;;;;;;;15.50;13.90;;;;;;;24.51;64.42;100214.77;107728;1257;61520;-81
2023/06/24 03:56:27;;;;;;;16.60;14.30;;;;;;;24.62;64.18;100210.37;107625;1256;60191;-82
2023/06/24 03:58:55;;;;;;;23.80;21.30;;;;;;;24.65;63.74;100207.34;107800;1257;72622;-80
2023/06/24 04:01:24;;;;;;;17.90;16.00;;;;;;;24.66;63.87;100209.61;107804;1256;72645;-82
2023/06/24 04:03:51;;;;;;;18.20;16.50;;;;;;;24.66;63.96;100210.94;107736;1256;71484;-81
2023/06/24 04:06:19;;;;;;;17.50;15.60;;;;;;;24.67;64.15;100205.10;107802;1260;60378;-81
2023/06/24 04:08:48;;;;;;;17.40;15.60;;;;;;;24.70;63.98;100205.70;107748;1256;60817;-80
2023/06/24 04:11:16;;;;;;;14.70;13.20;;;;;;;24.80;64.03;100210.34;107777;1257;73915;-80
2023/06/24 04:13:45;;;;;;;14.80;13.40;;;;;;;24.87;63.66;100223.66;107744;1256;72739;-80
2023/06/24 04:16:13;;;;;;;15.80;14.20;;;;;;;24.88;63.37;100235.09;107750;1256;72676;-80
2023/06/24 04:18:41;;;;;;;15.30;13.80;;;;;;;24.86;63.20;100235.58;107630;1259;61642;-82
2023/06/24 04:21:08;;;;;;;15.00;13.50;;;;;;;24.81;63.18;100244.08;107760;1257;60962;-81
2023/06/24 04:23:36;;;;;;;14.20;12.60;;;;;;;24.82;63.45;100239.98;107647;1257;74806;-80
2023/06/24 04:26:03;;;;;;;16.90;13.70;;;;;;;24.89;63.15;100238.38;107709;1257;72734;-80
2023/06/24 04:28:31;;;;;;;13.90;12.50;;;;;;;24.98;63.25;100235.49;107786;1256;70595;-81
2023/06/24 04:31:00;;;;;;;13.90;12.50;;;;;;;25.11;62.89;100238.63;107785;1256;61767;-81
2023/06/24 04:33:28;;;;;;;15.90;13.80;;;;;;;25.23;62.82;100242.15;107770;1256;60211;-80
2023/06/24 04:35:58;;;;;;;14.10;12.60;;;;;;;25.36;62.55;100235.73;107707;1257;72665;-81
2023/06/24 04:38:26;;;;;;;13.40;11.10;;;;;;;25.46;62.19;100234.90;107770;1256;73480;-81
2023/06/24 04:40:54;;;;;;;14.40;12.10;;;;;;;25.50;61.45;100235.05;107770;1256;71533;-82
2023/06/24 04:43:22;;;;;;;14.00;11.60;;;;;;;25.51;61.06;100233.64;107719;1257;60462;-80
2023/06/24 04:45:50;;;;;;;13.40;12.00;;;;;;;25.55;61.13;100230.81;107648;1256;60315;-80
2023/06/24 04:48:17;;;;;;;12.60;11.30;;;;;;;25.63;61.02;100225.55;107650;1256;74831;-81
2023/06/24 04:50:45;;;;;;;14.20;11.70;;;;;;;25.72;60.56;100226.55;107704;1256;72805;-81
2023/06/24 04:53:13;;;;;;;12.80;11.50;;;;;;;25.76;60.36;100228.00;107801;1256;71927;-82
2023/06/24 04:55:40;;;;;;;12.90;11.30;;;;;;;25.79;60.06;100236.41;107768;1258;60468;-81
2023/06/24 04:58:08;;;;;;;12.40;11.10;;;;;;;25.74;60.13;100231.56;107810;1256;60853;-81
2023/06/24 05:00:35;;;;;;;12.00;10.70;;;;;;;25.75;60.18;100226.44;107678;1256;73803;-81
2023/06/24 05:03:03;;;;;;;13.70;11.60;;;;;;;25.80;60.27;100221.92;107711;1256;71312;-80
2023/06/24 05:05:31;;;;;;;13.30;11.00;;;;;;;25.88;60.29;100215.48;107685;1259;71373;-80
2023/06/24 05:08:02;;;;;;;12.10;10.80;;;;;;;25.97;60.10;100213.73;107824;1260;61688;-81
2023/06/24 05:10:30;;;;;;;13.00;10.80;;;;;;;26.06;59.86;100211.59;107763;1257;60600;-81
2023/06/24 05:12:57;;;;;;;12.60;11.00;;;;;;;26.14;59.56;100208.65;107783;1256;72764;-79
2023/06/24 05:15:25;;;;;;;13.20;10.50;;;;;;;26.20;59.52;100206.99;107823;1257;71617;-81
2023/06/24 05:17:53;;;;;;;13.40;10.40;;;;;;;26.29;59.55;100204.30;107778;1262;72663;-80
2023/06/24 05:20:21;;;;;;;11.20;10.00;;;;;;;26.43;59.40;100207.45;107761;1256;60404;-82
2023/06/24 05:22:48;;;;;;;14.10;10.40;;;;;;;26.57;59.28;100203.17;107780;1256;60588;-80
2023/06/24 05:25:16;;;;;;;13.30;10.00;;;;;;;26.66;58.97;100208.60;107738;1256;73899;-80
2023/06/24 05:27:46;;;;;;;12.40;10.70;;;;;;;26.73;58.25;100207.90;107662;1262;72572;-79
2023/06/24 05:30:14;;;;;;;12.60;10.10;;;;;;;26.74;57.61;100208.30;107743;1256;73275;-79
2023/06/24 05:32:42;;;;;;;13.20;9.40;;;;;;;26.74;57.37;100211.29;107671;1257;60277;-80
2023/06/24 05:35:10;;;;;;;13.90;9.80;;;;;;;26.76;57.19;100211.70;107722;1257;60460;-79
2023/06/24 05:37:38;;;;;;;13.20;9.50;;;;;;;26.77;57.06;100212.17;107689;1257;73836;-80
2023/06/24 05:40:07;;;;;;;11.20;9.20;;;;;;;26.76;56.71;100213.33;107676;1256;72864;-81
2023/06/24 05:42:35;;;;;;;13.00;9.00;;;;;;;26.72;56.79;100220.48;107684;1256;72701;-80
2023/06/24 05:45:03;;;;;;;10.80;8.80;;;;;;;26.71;56.66;100222.44;107770;1260;60478;-82
2023/06/24 05:47:30;;;;;;;10.20;8.20;;;;;;;26.70;56.54;100227.76;107759;1256;60313;-80
2023/06/24 05:49:58;;;;;;;11.90;7.70;;;;;;;26.71;56.34;100226.73;107693;1256;73931;-81
2023/06/24 05:52:26;;;;;;;12.10;8.60;;;;;;;26.69;56.32;100227.27;107688;1256;71419;-81
2023/06/24 05:54:54;;;;;;;11.90;8.40;;;;;;;26.67;56.37;100229.67;107740;1257;72726;-81
2023/06/24 05:57:21;;;;;;;10.10;8.20;;;;;;;26.71;56.36;100226.20;107666;1257;61828;-80
2023/06/24 05:59:49;;;;;;;9.70;8.10;;;;;;;26.77;55.98;100228.08;107585;1256;60048;-80
2023/06/24 06:02:17;;;;;;;12.20;7.70;;;;;;;26.85;56.17;100226.12;107694;1256;73914;-79
2023/06/24 06:04:44;;;;;;;9.80;7.60;;;;;;;26.96;55.83;100224.89;107693;1256;71433;-81
2023/06/24 06:07:12;;;;;;;11.80;7.50;;;;;;;27.03;55.59;100222.38;107701;1256;71089;-81
2023/06/24 06:09:40;;;;;;;10.30;7.20;;;;;;;27.06;55.28;100222.50;107766;1257;60457;-81
2023/06/24 06:12:08;;;;;;;10.30;7.40;;;;;;;27.08;55.51;100216.95;107677;1257;60187;-81
2023/06/24 06:14:36;;;;;;;9.50;6.90;;;;;;;27.15;55.39;100216.95;107577;1256;72646;-81
2023/06/24 06:17:04;;;;;;;11.40;7.30;;;;;;;27.23;55.03;100215.16;107677;1256;71630;-81
2023/06/24 06:19:32;;;;;;;11.20;7.40;;;;;;;27.29;54.45;100214.73;107703;1256;72482;-82
2023/06/24 06:22:00;;;;;;;11.50;6.90;;;;;;;27.32;53.96;100212.42;107764;1257;60855;-80
2023/06/24 06:24:27;;;;;;;8.40;6.80;;;;;;;27.35;54.11;100217.54;107742;1257;60432;-81
2023/06/24 06:26:55;;;;;;;8.50;6.60;;;;;;;27.31;53.71;100216.33;107662;1256;72667;-80
2023/06/24 06:29:23;;;;;;;9.50;6.60;;;;;;;27.30;54.03;100214.35;107534;1256;73210;-80
2023/06/24 06:31:50;;;;;;;10.00;6.40;;;;;;;27.33;53.71;100213.83;107685;1256;71066;-80
2023/06/24 06:34:18;;;;;;;8.20;6.10;;;;;;;27.37;53.78;100212.69;107699;1257;60240;-80
2023/06/24 06:36:46;;;;;;;8.10;6.20;;;;;;;27.44;53.80;100211.98;107593;1256;60309;-80
2023/06/24 06:39:13;;;;;;;8.20;6.20;;;;;;;27.51;53.24;100211.00;107764;1257;67619;-79
2023/06/24 06:41:41;;;;;;;8.00;6.20;;;;;;;27.54;52.61;100207.34;107739;1256;72818;-79
2023/06/24 06:44:10;;;;;;;10.30;5.50;;;;;;;27.56;52.68;100206.25;107644;1256;71029;-81
2023/06/24 06:46:38;;;;;;;10.20;6.00;;;;;;;27.59;52.64;100205.73;107680;1257;60375;-79
2023/06/24 06:49:06;;;;;;;9.90;6.20;;;;;;;27.66;52.91;100206.40;107819;1257;60378;-81
2023/06/24 06:51:34;;;;;;;8.80;5.50;;;;;;;27.73;52.51;100204.81;107810;1262;73864;-82
2023/06/24 06:54:02;;;;;;;10.70;5.90;;;;;;;27.81;51.76;100205.59;107699;1256;71609;-81
2023/06/24 06:56:30;;;;;;;8.70;5.90;;;;;;;27.87;51.46;100208.30;107691;1256;73143;-81
2023/06/24 06:58:58;;;;;;;8.20;5.90;;;;;;;27.95;51.30;100207.72;107732;1257;60453;-82
2023/06/24 07:01:25;;;;;;;11.30;5.70;;;;;;;28.04;51.18;100207.45;107857;1256;60330;-81
2023/06/24 07:03:53;;;;;;;8.90;5.70;;;;;;;28.09;51.17;100205.68;107741;1256;73884;-80
2023/06/24 07:06:21;;;;;;;9.60;5.60;;;;;;;28.11;50.98;100203.49;107652;1263;72011;-81
2023/06/24 07:08:48;;;;;;;8.10;5.50;;;;;;;28.10;50.91;100209.39;107760;1257;72586;-81
2023/06/24 07:11:16;;;;;;;9.70;5.40;;;;;;;28.01;51.13;100217.23;107759;1256;60459;-82
2023/06/24 07:13:45;;;;;;;10.00;5.50;;;;;;;27.91;51.44;100215.61;107731;1256;60499;-80
2023/06/24 07:16:13;;;;;;;11.20;5.70;;;;;;;27.83;51.52;100216.20;107693;1256;73880;-81
2023/06/24 07:18:41;;;;;;;9.80;5.30;;;;;;;27.77;51.75;100218.83;107758;1256;73004;-83
2023/06/24 07:21:08;;;;;;;9.80;5.30;;;;;;;27.73;51.79;100217.75;107837;1256;72775;-82
2023/06/24 07:23:36;;;;;;;9.60;5.20;;;;;;;27.71;51.48;100215.86;107740;1257;60555;-81
2023/06/24 07:26:04;;;;;;;9.00;4.90;;;;;;;27.66;51.22;100214.95;107752;1263;60347;-81
2023/06/24 07:28:31;;;;;;;9.40;5.00;;;;;;;27.61;51.29;100216.17;107782;1256;73891;-79
2023/06/24 07:31:02;;;;;;;8.70;5.20;;;;;;;27.59;51.31;100217.33;107803;1257;71471;-80
2023/06/24 07:33:30;;;;;;;9.10;5.40;;;;;;;27.60;51.37;100216.02;107752;1262;72698;-80
2023/06/24 07:35:58;;;;;;;10.00;5.40;;;;;;;27.63;51.49;100214.23;107717;1257;60537;-80
2023/06/24 07:38:27;;;;;;;10.30;5.30;;;;;;;27.69;51.33;100212.86;107618;1264;60454;-79
2023/06/24 07:40:55;;;;;;;9.00;5.40;;;;;;;27.77;51.44;100216.70;107732;1256;73937;-80
2023/06/24 07:43:23;;;;;;;10.20;5.20;;;;;;;27.85;51.43;100225.23;107673;1256;72066;-82
2023/06/24 07:45:50;;;;;;;10.00;4.70;;;;;;;27.91;51.21;100234.05;107700;1256;72674;-82
2023/06/24 07:48:18;;;;;;;7.80;4.80;;;;;;;27.96;51.28;100237.14;107627;1257;60309;-81
2023/06/24 07:50:46;;;;;;;8.10;4.50;;;;;;;28.03;51.26;100233.10;107722;1257;60319;-81
2023/06/24 07:53:14;;;;;;;9.80;4.90;;;;;;;28.12;51.01;100234.17;107725;1256;73078;-81
2023/06/24 07:55:41;;;;;;;7.60;4.70;;;;;;;28.20;50.77;100235.31;107827;1256;71601;-81
2023/06/24 07:58:09;;;;;;;7.20;4.70;;;;;;;28.32;50.96;100229.73;107754;1259;72689;-82
2023/06/24 08:00:37;;;;;;;8.00;4.70;;;;;;;28.45;50.99;100235.61;107803;1259;60347;-82
2023/06/24 08:03:06;;;;;;;9.00;4.90;;;;;;;28.57;51.04;100238.96;107737;1256;60297;-81
2023/06/24 08:05:34;;;;;;;9.50;5.10;;;;;;;28.66;50.61;100242.84;107754;1256;63736;-81
2023/06/24 08:08:02;;;;;;;9.60;5.10;;;;;;;28.68;50.30;100248.73;107773;1256;72813;-81
2023/06/24 08:10:30;;;;;;;8.50;4.50;;;;;;;28.65;50.32;100249.35;107798;1256;71871;-80
2023/06/24 08:12:58;;;;;;;9.40;5.90;;;;;;;28.68;50.53;100255.33;107682;1257;60354;-81
2023/06/24 08:15:25;;;;;;;9.10;4.70;;;;;;;28.72;50.75;100254.71;107746;1257;60305;-81
2023/06/24 08:17:53;;;;;;;9.40;4.90;;;;;;;28.77;50.52;100254.73;107703;1256;73371;-80
2023/06/24 08:20:22;;;;;;;8.90;4.90;;;;;;;28.84;50.98;100253.33;107685;1256;72568;-85
2023/06/24 08:22:50;;;;;;;9.10;5.00;;;;;;;28.87;50.66;100252.55;107785;1256;63778;-81
2023/06/24 08:25:18;;;;;;;8.60;4.60;;;;;;;28.92;50.78;100249.59;107762;1259;60370;-80
2023/06/24 08:27:46;;;;;;;8.30;4.80;;;;;;;29.03;50.96;100244.61;107735;1256;62621;-80
2023/06/24 08:30:17;;;;;;;7.90;5.10;;;;;;;29.17;50.91;100244.55;107712;1256;65967;-80
2023/06/24 08:32:45;;;;;;;;;;;;;;;29.37;50.32;100246.61;107753;1257;72752;-81
2023/06/24 08:35:13;;;;;;;7.60;4.70;;;;;;;29.58;49.54;100249.45;107820;1259;62525;-81
2023/06/24 08:37:41;;;;;;;9.10;4.80;;;;;;;29.76;48.20;100250.64;107695;1257;60424;-80
2023/06/24 08:40:09;;;;;;;7.60;4.50;;;;;;;29.82;47.86;100247.33;107831;1256;60204;-80
2023/06/24 08:42:36;;;;;;;7.70;4.90;;;;;;;29.95;47.88;100248.33;107819;1257;64919;-80
2023/06/24 08:45:04;;;;;;;9.30;5.50;;;;;;;30.07;47.95;100245.48;107767;1256;62836;-80
2023/06/24 08:47:32;;;;;;;7.40;5.20;;;;;;;30.17;47.75;100243.26;107727;1259;62699;-80
2023/06/24 08:50:03;;;;;;;8.70;5.10;;;;;;;30.24;47.17;100250.96;107621;1259;60652;-82
2023/06/24 08:52:38;;;;;;;7.10;5.30;;;;;;;30.18;46.87;100252.69;107679;1256;60495;-80
2023/06/24 08:55:07;;;;;;;7.80;4.80;;;;;;;30.06;47.01;100244.45;107849;1256;64915;-81
2023/06/24 08:57:34;;;;;;;9.80;5.60;;;;;;;30.01;47.18;100247.30;107745;1256;63886;-80
2023/06/24 09:00:03;;;;;;;8.50;5.30;;;;;;;29.99;47.40;100248.23;107812;1257;63855;-81
2023/06/24 09:02:32;;;;;;;7.90;4.70;;;;;;;29.94;47.41;100252.42;107829;1258;60582;-82
2023/06/24 09:05:00;;;;;;;8.50;5.40;;;;;;;29.81;47.73;100254.18;107702;1257;60490;-82
2023/06/24 09:07:28;;;;;;;8.90;5.80;;;;;;;29.74;48.02;100255.91;107707;1258;64921;-81
2023/06/24 09:09:56;;;;;;;8.60;5.50;;;;;;;29.65;48.20;100255.22;107697;1257;64165;-81
2023/06/24 09:12:27;;;;;;;7.20;5.10;;;;;;;29.62;48.67;100256.17;107629;1258;63801;-81
2023/06/24 09:14:55;;;;;;;8.80;5.20;;;;;;;29.64;49.00;100260.95;107692;1257;60365;-82
2023/06/24 09:17:22;;;;;;;8.40;5.00;;;;;;;29.65;48.72;100259.70;107691;1256;60511;-81
2023/06/24 09:19:50;;;;;;;9.90;6.80;;;;;;;29.63;48.84;100261.35;107723;1256;63666;-80
2023/06/24 09:22:18;;;;;;;9.90;6.50;;;;;;;29.52;48.77;100260.14;107612;1257;64004;-83
2023/06/24 09:24:47;;;;;;;9.40;5.80;;;;;;;29.42;49.39;100258.33;107514;1257;63806;-82
2023/06/24 09:27:16;;;;;;;10.30;6.30;;;;;;;29.37;49.74;100255.98;107665;1258;60471;-81
2023/06/24 09:29:44;;;;;;;9.20;5.30;;;;;;;29.39;50.19;100255.10;107896;1257;59610;-80
2023/06/24 09:32:11;;;;;;;7.30;5.50;;;;;;;29.46;50.01;100256.45;107811;1257;65040;-84
2023/06/24 09:34:39;;;;;;;7.20;5.30;;;;;;;29.49;49.75;100256.91;107761;1257;62609;-83
2023/06/24 09:37:07;;;;;;;9.00;5.80;;;;;;;29.47;49.77;100258.96;107736;1257;62463;-81
2023/06/24 09:39:39;;;;;;;8.10;6.20;;;;;;;29.42;49.67;100260.14;107801;1256;60391;-80
2023/06/24 09:42:07;;;;;;;10.10;5.90;;;;;;;29.35;49.85;100255.73;107704;1262;60347;-80
2023/06/24 09:44:35;;;;;;;11.00;5.80;;;;;;;29.32;50.48;100253.54;107738;1256;64951;-81
2023/06/24 09:47:03;;;;;;;10.50;5.80;;;;;;;29.34;49.93;100255.81;107718;1256;63947;-81
2023/06/24 09:49:30;;;;;;;9.40;5.10;;;;;;;29.28;49.34;100254.15;107712;1256;71435;-79
2023/06/24 09:51:59;;;;;;;10.20;5.60;;;;;;;29.27;49.67;100251.88;107772;1259;59719;-80
2023/06/24 09:54:30;;;;;;;7.60;5.20;;;;;;;29.32;49.50;100256.52;107614;1257;60576;-81
2023/06/24 09:57:03;;;;;;;8.20;5.30;;;;;;;29.42;49.58;100258.72;107671;1257;65299;-80
2023/06/24 09:59:33;;;;;;;8.50;5.60;;;;;;;29.52;49.43;100255.19;107743;1257;63803;-81
